sensor_id;sensor_type;location;lat;lon;timestamp;temperature;humidity
33827;DHT22;20128;45.582;5.298;2022-12-20T00:02:22;10.00;93.60
33827;DHT22;20128;45.582;5.298;2022-12-20T00:04:47;10.10;93.50
33827;DHT22;20128;45.582;5.298;2022-12-20T00:07:13;10.10;93.30
33827;DHT22;20128;45.582;5.298;2022-12-20T00:09:39;10.20;93.40
33827;DHT22;20128;45.582;5.298;2022-12-20T00:12:05;10.20;93.40
33827;DHT22;20128;45.582;5.298;2022-12-20T00:14:31;10.30;93.50
33827;DHT22;20128;45.582;5.298;2022-12-20T00:16:56;10.30;93.50
33827;DHT22;20128;45.582;5.298;2022-12-20T00:19:22;10.40;93.40
33827;DHT22;20128;45.582;5.298;2022-12-20T00:21:48;10.50;93.30
33827;DHT22;20128;45.582;5.298;2022-12-20T00:24:13;10.50;93.20
33827;DHT22;20128;45.582;5.298;2022-12-20T00:26:39;10.50;93.10
33827;DHT22;20128;45.582;5.298;2022-12-20T00:29:05;10.50;93.10
33827;DHT22;20128;45.582;5.298;2022-12-20T00:31:31;10.50;93.10
33827;DHT22;20128;45.582;5.298;2022-12-20T00:33:58;10.50;93.00
33827;DHT22;20128;45.582;5.298;2022-12-20T00:36:27;10.50;93.00
33827;DHT22;20128;45.582;5.298;2022-12-20T00:38:55;10.50;92.90
33827;DHT22;20128;45.582;5.298;2022-12-20T00:41:23;10.40;92.80
33827;DHT22;20128;45.582;5.298;2022-12-20T00:43:48;10.40;92.70
33827;DHT22;20128;45.582;5.298;2022-12-20T00:46:16;10.40;92.70
33827;DHT22;20128;45.582;5.298;2022-12-20T00:48:42;10.30;92.80
33827;DHT22;20128;45.582;5.298;2022-12-20T00:51:10;10.30;92.80
33827;DHT22;20128;45.582;5.298;2022-12-20T00:53:37;10.30;92.80
33827;DHT22;20128;45.582;5.298;2022-12-20T00:56:03;10.20;92.80
33827;DHT22;20128;45.582;5.298;2022-12-20T00:58:31;10.20;92.80
33827;DHT22;20128;45.582;5.298;2022-12-20T01:00:57;10.20;92.80
33827;DHT22;20128;45.582;5.298;2022-12-20T01:03:24;10.10;92.80
33827;DHT22;20128;45.582;5.298;2022-12-20T01:05:59;10.10;92.80
33827;DHT22;20128;45.582;5.298;2022-12-20T01:08:27;10.10;92.90
33827;DHT22;20128;45.582;5.298;2022-12-20T01:11:03;10.10;92.90
33827;DHT22;20128;45.582;5.298;2022-12-20T01:13:30;10.10;93.00
33827;DHT22;20128;45.582;5.298;2022-12-20T01:15:57;10.10;93.10
33827;DHT22;20128;45.582;5.298;2022-12-20T01:18:27;10.10;93.10
33827;DHT22;20128;45.582;5.298;2022-12-20T01:21:00;10.00;93.00
33827;DHT22;20128;45.582;5.298;2022-12-20T01:23:26;10.00;93.00
33827;DHT22;20128;45.582;5.298;2022-12-20T01:25:52;10.00;93.20
33827;DHT22;20128;45.582;5.298;2022-12-20T01:28:18;10.00;93.30
33827;DHT22;20128;45.582;5.298;2022-12-20T01:30:43;10.00;93.30
33827;DHT22;20128;45.582;5.298;2022-12-20T01:33:09;10.00;93.30
33827;DHT22;20128;45.582;5.298;2022-12-20T01:35:34;10.00;93.60
33827;DHT22;20128;45.582;5.298;2022-12-20T01:38:00;10.00;93.60
33827;DHT22;20128;45.582;5.298;2022-12-20T01:40:26;10.10;93.50
33827;DHT22;20128;45.582;5.298;2022-12-20T01:42:51;10.10;93.60
33827;DHT22;20128;45.582;5.298;2022-12-20T01:45:26;10.10;93.60
33827;DHT22;20128;45.582;5.298;2022-12-20T01:47:52;10.10;93.80
33827;DHT22;20128;45.582;5.298;2022-12-20T01:50:18;10.10;93.80
33827;DHT22;20128;45.582;5.298;2022-12-20T01:52:45;10.10;93.80
33827;DHT22;20128;45.582;5.298;2022-12-20T01:55:19;10.10;93.80
33827;DHT22;20128;45.582;5.298;2022-12-20T01:57:57;10.20;93.90
33827;DHT22;20128;45.582;5.298;2022-12-20T02:00:24;10.30;93.90
33827;DHT22;20128;45.582;5.298;2022-12-20T02:02:50;10.30;93.80
33827;DHT22;20128;45.582;5.298;2022-12-20T02:05:18;10.40;93.80
33827;DHT22;20128;45.582;5.298;2022-12-20T02:07:47;10.40;93.70
33827;DHT22;20128;45.582;5.298;2022-12-20T02:10:14;10.40;93.60
33827;DHT22;20128;45.582;5.298;2022-12-20T02:12:43;10.50;93.60
33827;DHT22;20128;45.582;5.298;2022-12-20T02:15:29;10.50;93.40
33827;DHT22;20128;45.582;5.298;2022-12-20T02:32:35;10.50;93.00
33827;DHT22;20128;45.582;5.298;2022-12-20T02:34:34;10.50;92.90
33827;DHT22;20128;45.582;5.298;2022-12-20T02:37:01;10.50;92.80
33827;DHT22;20128;45.582;5.298;2022-12-20T02:39:29;10.50;92.80
33827;DHT22;20128;45.582;5.298;2022-12-20T02:42:07;10.50;92.70
33827;DHT22;20128;45.582;5.298;2022-12-20T02:44:36;10.50;92.60
33827;DHT22;20128;45.582;5.298;2022-12-20T02:47:33;10.50;92.60
33827;DHT22;20128;45.582;5.298;2022-12-20T02:50:02;10.50;92.50
33827;DHT22;20128;45.582;5.298;2022-12-20T02:52:29;10.40;92.50
33827;DHT22;20128;45.582;5.298;2022-12-20T02:54:56;10.40;92.40
33827;DHT22;20128;45.582;5.298;2022-12-20T03:00:09;10.30;92.40
33827;DHT22;20128;45.582;5.298;2022-12-20T03:02:37;10.20;92.50
33827;DHT22;20128;45.582;5.298;2022-12-20T03:05:22;10.20;92.40
33827;DHT22;20128;45.582;5.298;2022-12-20T03:07:49;10.20;92.60
33827;DHT22;20128;45.582;5.298;2022-12-20T03:10:16;10.10;92.40
33827;DHT22;20128;45.582;5.298;2022-12-20T03:12:42;10.10;92.40
33827;DHT22;20128;45.582;5.298;2022-12-20T03:15:09;10.10;92.50
33827;DHT22;20128;45.582;5.298;2022-12-20T03:17:34;10.10;92.50
33827;DHT22;20128;45.582;5.298;2022-12-20T03:20:00;10.00;92.30
33827;DHT22;20128;45.582;5.298;2022-12-20T03:22:26;10.00;92.70
33827;DHT22;20128;45.582;5.298;2022-12-20T03:24:52;10.00;92.50
33827;DHT22;20128;45.582;5.298;2022-12-20T03:27:17;10.00;92.40
33827;DHT22;20128;45.582;5.298;2022-12-20T03:29:44;10.00;92.50
33827;DHT22;20128;45.582;5.298;2022-12-20T03:32:11;10.00;92.40
33827;DHT22;20128;45.582;5.298;2022-12-20T03:34:36;10.00;92.40
33827;DHT22;20128;45.582;5.298;2022-12-20T03:37:02;9.90;92.40
33827;DHT22;20128;45.582;5.298;2022-12-20T03:39:28;9.90;92.40
33827;DHT22;20128;45.582;5.298;2022-12-20T03:41:54;10.00;92.50
33827;DHT22;20128;45.582;5.298;2022-12-20T03:44:19;9.90;92.40
33827;DHT22;20128;45.582;5.298;2022-12-20T03:46:45;9.90;92.40
33827;DHT22;20128;45.582;5.298;2022-12-20T03:49:11;9.90;92.40
33827;DHT22;20128;45.582;5.298;2022-12-20T03:51:36;10.00;92.40
33827;DHT22;20128;45.582;5.298;2022-12-20T03:54:02;9.90;92.20
33827;DHT22;20128;45.582;5.298;2022-12-20T03:56:28;10.00;92.20
33827;DHT22;20128;45.582;5.298;2022-12-20T03:58:53;9.90;92.20
33827;DHT22;20128;45.582;5.298;2022-12-20T04:01:25;10.00;92.10
33827;DHT22;20128;45.582;5.298;2022-12-20T04:03:53;9.90;92.00
33827;DHT22;20128;45.582;5.298;2022-12-20T04:06:19;9.90;92.00
33827;DHT22;20128;45.582;5.298;2022-12-20T04:08:45;10.00;92.00
33827;DHT22;20128;45.582;5.298;2022-12-20T04:11:11;10.00;92.10
33827;DHT22;20128;45.582;5.298;2022-12-20T04:13:51;10.00;92.10
33827;DHT22;20128;45.582;5.298;2022-12-20T04:16:23;10.00;92.10
33827;DHT22;20128;45.582;5.298;2022-12-20T04:18:49;10.00;92.20
33827;DHT22;20128;45.582;5.298;2022-12-20T04:21:15;10.00;92.20
33827;DHT22;20128;45.582;5.298;2022-12-20T04:23:41;10.10;92.20
33827;DHT22;20128;45.582;5.298;2022-12-20T04:26:09;10.00;92.20
33827;DHT22;20128;45.582;5.298;2022-12-20T04:28:35;10.10;92.20
33827;DHT22;20128;45.582;5.298;2022-12-20T04:31:01;10.10;92.30
33827;DHT22;20128;45.582;5.298;2022-12-20T04:33:27;10.00;92.20
33827;DHT22;20128;45.582;5.298;2022-12-20T04:35:53;10.10;92.20
33827;DHT22;20128;45.582;5.298;2022-12-20T04:38:20;10.10;92.20
33827;DHT22;20128;45.582;5.298;2022-12-20T04:40:50;10.10;92.20
33827;DHT22;20128;45.582;5.298;2022-12-20T04:43:17;10.10;92.20
33827;DHT22;20128;45.582;5.298;2022-12-20T04:45:43;10.10;92.30
33827;DHT22;20128;45.582;5.298;2022-12-20T04:48:10;10.10;92.40
33827;DHT22;20128;45.582;5.298;2022-12-20T04:50:36;10.10;92.40
33827;DHT22;20128;45.582;5.298;2022-12-20T04:53:01;10.10;92.40
33827;DHT22;20128;45.582;5.298;2022-12-20T04:55:46;10.10;92.40
33827;DHT22;20128;45.582;5.298;2022-12-20T04:58:12;10.10;92.40
33827;DHT22;20128;45.582;5.298;2022-12-20T05:00:37;10.10;92.50
33827;DHT22;20128;45.582;5.298;2022-12-20T05:03:03;10.10;92.50
33827;DHT22;20128;45.582;5.298;2022-12-20T05:05:29;10.10;92.50
33827;DHT22;20128;45.582;5.298;2022-12-20T05:07:55;10.10;92.50
33827;DHT22;20128;45.582;5.298;2022-12-20T05:10:21;10.10;92.60
33827;DHT22;20128;45.582;5.298;2022-12-20T05:12:46;10.20;92.60
33827;DHT22;20128;45.582;5.298;2022-12-20T05:15:12;10.20;92.60
33827;DHT22;20128;45.582;5.298;2022-12-20T05:17:38;10.20;92.60
33827;DHT22;20128;45.582;5.298;2022-12-20T05:20:05;10.20;92.60
33827;DHT22;20128;45.582;5.298;2022-12-20T05:22:31;10.20;92.60
33827;DHT22;20128;45.582;5.298;2022-12-20T05:25:15;10.20;92.50
33827;DHT22;20128;45.582;5.298;2022-12-20T05:28:00;10.30;92.30
33827;DHT22;20128;45.582;5.298;2022-12-20T05:30:26;10.40;92.20
33827;DHT22;20128;45.582;5.298;2022-12-20T05:32:52;10.50;92.00
33827;DHT22;20128;45.582;5.298;2022-12-20T05:35:17;10.70;91.80
33827;DHT22;20128;45.582;5.298;2022-12-20T05:37:43;10.80;91.60
33827;DHT22;20128;45.582;5.298;2022-12-20T05:40:10;10.90;91.10
33827;DHT22;20128;45.582;5.298;2022-12-20T05:42:36;10.90;91.00
33827;DHT22;20128;45.582;5.298;2022-12-20T05:45:03;10.90;91.00
33827;DHT22;20128;45.582;5.298;2022-12-20T05:47:29;10.90;90.60
33827;DHT22;20128;45.582;5.298;2022-12-20T05:49:58;11.10;90.00
33827;DHT22;20128;45.582;5.298;2022-12-20T05:52:24;11.20;90.00
33827;DHT22;20128;45.582;5.298;2022-12-20T05:54:50;11.20;89.80
33827;DHT22;20128;45.582;5.298;2022-12-20T05:57:16;11.20;89.60
33827;DHT22;20128;45.582;5.298;2022-12-20T05:59:42;11.20;89.20
33827;DHT22;20128;45.582;5.298;2022-12-20T06:02:07;11.20;89.30
33827;DHT22;20128;45.582;5.298;2022-12-20T06:04:35;11.20;88.90
33827;DHT22;20128;45.582;5.298;2022-12-20T06:07:01;11.20;88.70
33827;DHT22;20128;45.582;5.298;2022-12-20T06:09:27;11.30;88.10
33827;DHT22;20128;45.582;5.298;2022-12-20T06:11:54;11.30;88.20
33827;DHT22;20128;45.582;5.298;2022-12-20T06:14:20;11.30;88.20
33827;DHT22;20128;45.582;5.298;2022-12-20T06:16:46;11.30;88.20
33827;DHT22;20128;45.582;5.298;2022-12-20T06:19:11;11.30;87.70
33827;DHT22;20128;45.582;5.298;2022-12-20T06:21:38;11.30;87.00
33827;DHT22;20128;45.582;5.298;2022-12-20T06:24:05;11.30;87.30
33827;DHT22;20128;45.582;5.298;2022-12-20T06:26:31;11.40;86.10
33827;DHT22;20128;45.582;5.298;2022-12-20T06:29:01;11.40;85.60
33827;DHT22;20128;45.582;5.298;2022-12-20T06:31:27;11.40;86.10
33827;DHT22;20128;45.582;5.298;2022-12-20T06:33:53;11.50;85.70
33827;DHT22;20128;45.582;5.298;2022-12-20T06:36:19;11.50;85.60
33827;DHT22;20128;45.582;5.298;2022-12-20T06:38:44;11.50;85.00
33827;DHT22;20128;45.582;5.298;2022-12-20T06:41:10;11.50;85.40
33827;DHT22;20128;45.582;5.298;2022-12-20T06:43:36;11.70;84.60
33827;DHT22;20128;45.582;5.298;2022-12-20T06:46:01;11.70;84.50
33827;DHT22;20128;45.582;5.298;2022-12-20T06:48:27;11.70;84.20
33827;DHT22;20128;45.582;5.298;2022-12-20T06:50:54;11.70;84.10
33827;DHT22;20128;45.582;5.298;2022-12-20T06:53:20;11.80;83.10
33827;DHT22;20128;45.582;5.298;2022-12-20T06:55:48;11.80;83.70
33827;DHT22;20128;45.582;5.298;2022-12-20T06:58:15;11.90;82.20
33827;DHT22;20128;45.582;5.298;2022-12-20T07:00:41;11.90;83.10
33827;DHT22;20128;45.582;5.298;2022-12-20T07:03:06;11.90;83.60
33827;DHT22;20128;45.582;5.298;2022-12-20T07:05:32;11.90;83.60
33827;DHT22;20128;45.582;5.298;2022-12-20T07:07:58;11.90;83.20
33827;DHT22;20128;45.582;5.298;2022-12-20T07:10:23;11.90;83.00
33827;DHT22;20128;45.582;5.298;2022-12-20T07:12:51;11.90;83.00
33827;DHT22;20128;45.582;5.298;2022-12-20T07:15:17;12.00;83.30
33827;DHT22;20128;45.582;5.298;2022-12-20T07:17:43;12.00;82.80
33827;DHT22;20128;45.582;5.298;2022-12-20T07:20:09;12.10;82.40
33827;DHT22;20128;45.582;5.298;2022-12-20T07:22:34;12.10;82.40
33827;DHT22;20128;45.582;5.298;2022-12-20T07:25:00;12.10;82.40
33827;DHT22;20128;45.582;5.298;2022-12-20T07:27:26;12.10;82.10
33827;DHT22;20128;45.582;5.298;2022-12-20T07:29:51;12.20;81.90
33827;DHT22;20128;45.582;5.298;2022-12-20T07:32:17;12.20;81.60
33827;DHT22;20128;45.582;5.298;2022-12-20T07:34:43;12.20;81.30
33827;DHT22;20128;45.582;5.298;2022-12-20T07:37:09;12.20;82.00
33827;DHT22;20128;45.582;5.298;2022-12-20T07:39:34;12.20;82.10
33827;DHT22;20128;45.582;5.298;2022-12-20T07:42:00;12.10;82.00
33827;DHT22;20128;45.582;5.298;2022-12-20T07:44:25;12.10;82.10
33827;DHT22;20128;45.582;5.298;2022-12-20T07:46:52;12.20;81.30
33827;DHT22;20128;45.582;5.298;2022-12-20T07:49:17;12.20;81.40
33827;DHT22;20128;45.582;5.298;2022-12-20T07:51:49;12.20;81.30
33827;DHT22;20128;45.582;5.298;2022-12-20T07:54:25;12.20;81.30
33827;DHT22;20128;45.582;5.298;2022-12-20T07:56:55;12.30;80.90
33827;DHT22;20128;45.582;5.298;2022-12-20T07:59:29;12.30;80.30
33827;DHT22;20128;45.582;5.298;2022-12-20T08:01:55;12.30;80.70
33827;DHT22;20128;45.582;5.298;2022-12-20T08:04:24;12.30;81.30
33827;DHT22;20128;45.582;5.298;2022-12-20T08:06:51;12.30;81.50
33827;DHT22;20128;45.582;5.298;2022-12-20T08:09:18;12.20;82.00
33827;DHT22;20128;45.582;5.298;2022-12-20T08:11:46;12.10;82.00
33827;DHT22;20128;45.582;5.298;2022-12-20T08:14:13;12.20;81.30
33827;DHT22;20128;45.582;5.298;2022-12-20T08:16:39;12.20;81.50
33827;DHT22;20128;45.582;5.298;2022-12-20T08:19:05;12.20;81.30
33827;DHT22;20128;45.582;5.298;2022-12-20T08:21:30;12.20;80.90
33827;DHT22;20128;45.582;5.298;2022-12-20T08:23:56;12.20;81.00
33827;DHT22;20128;45.582;5.298;2022-12-20T08:26:22;12.30;81.10
33827;DHT22;20128;45.582;5.298;2022-12-20T08:28:47;12.30;80.00
33827;DHT22;20128;45.582;5.298;2022-12-20T08:31:13;12.40;80.40
33827;DHT22;20128;45.582;5.298;2022-12-20T08:33:39;12.40;79.70
33827;DHT22;20128;45.582;5.298;2022-12-20T08:36:08;12.40;80.20
33827;DHT22;20128;45.582;5.298;2022-12-20T08:38:34;12.40;80.50
33827;DHT22;20128;45.582;5.298;2022-12-20T08:41:08;12.50;80.00
33827;DHT22;20128;45.582;5.298;2022-12-20T08:43:35;12.50;80.10
33827;DHT22;20128;45.582;5.298;2022-12-20T08:46:01;12.50;80.30
33827;DHT22;20128;45.582;5.298;2022-12-20T08:48:27;12.50;80.10
33827;DHT22;20128;45.582;5.298;2022-12-20T08:50:57;12.50;79.80
33827;DHT22;20128;45.582;5.298;2022-12-20T08:53:23;12.50;79.80
33827;DHT22;20128;45.582;5.298;2022-12-20T08:55:49;12.50;79.50
33827;DHT22;20128;45.582;5.298;2022-12-20T08:58:16;12.60;79.30
33827;DHT22;20128;45.582;5.298;2022-12-20T09:00:41;12.60;79.40
33827;DHT22;20128;45.582;5.298;2022-12-20T09:03:07;12.70;79.30
33827;DHT22;20128;45.582;5.298;2022-12-20T09:05:36;12.60;79.20
33827;DHT22;20128;45.582;5.298;2022-12-20T09:08:01;12.60;79.40
33827;DHT22;20128;45.582;5.298;2022-12-20T09:10:27;12.60;79.50
33827;DHT22;20128;45.582;5.298;2022-12-20T09:12:53;12.60;80.10
33827;DHT22;20128;45.582;5.298;2022-12-20T09:15:18;12.70;79.80
33827;DHT22;20128;45.582;5.298;2022-12-20T09:17:44;12.60;80.10
33827;DHT22;20128;45.582;5.298;2022-12-20T09:20:11;12.70;79.60
33827;DHT22;20128;45.582;5.298;2022-12-20T09:22:37;12.70;79.70
33827;DHT22;20128;45.582;5.298;2022-12-20T09:25:03;12.70;79.50
33827;DHT22;20128;45.582;5.298;2022-12-20T09:27:28;12.70;79.50
33827;DHT22;20128;45.582;5.298;2022-12-20T09:29:54;12.70;79.80
33827;DHT22;20128;45.582;5.298;2022-12-20T09:32:20;12.70;80.10
33827;DHT22;20128;45.582;5.298;2022-12-20T09:34:45;12.70;79.70
33827;DHT22;20128;45.582;5.298;2022-12-20T09:37:12;12.70;79.70
33827;DHT22;20128;45.582;5.298;2022-12-20T09:39:38;12.80;79.20
33827;DHT22;20128;45.582;5.298;2022-12-20T09:42:06;12.90;78.60
33827;DHT22;20128;45.582;5.298;2022-12-20T09:44:37;12.90;78.60
33827;DHT22;20128;45.582;5.298;2022-12-20T09:47:08;12.90;78.30
33827;DHT22;20128;45.582;5.298;2022-12-20T09:49:46;13.00;77.90
33827;DHT22;20128;45.582;5.298;2022-12-20T09:52:28;13.00;77.80
33827;DHT22;20128;45.582;5.298;2022-12-20T10:00:35;13.10;77.20
33827;DHT22;20128;45.582;5.298;2022-12-20T10:03:05;13.20;77.20
33827;DHT22;20128;45.582;5.298;2022-12-20T10:05:53;13.20;77.00
33827;DHT22;20128;45.582;5.298;2022-12-20T10:16:45;13.20;76.50
33827;DHT22;20128;45.582;5.298;2022-12-20T10:19:26;13.30;76.70
33827;DHT22;20128;45.582;5.298;2022-12-20T10:24:33;13.20;76.60
33827;DHT22;20128;45.582;5.298;2022-12-20T10:27:15;13.30;76.50
33827;DHT22;20128;45.582;5.298;2022-12-20T10:29:43;13.30;76.50
33827;DHT22;20128;45.582;5.298;2022-12-20T10:32:16;13.30;76.30
33827;DHT22;20128;45.582;5.298;2022-12-20T10:37:36;13.40;75.70
33827;DHT22;20128;45.582;5.298;2022-12-20T10:40:02;13.40;76.20
33827;DHT22;20128;45.582;5.298;2022-12-20T10:42:38;13.40;76.10
33827;DHT22;20128;45.582;5.298;2022-12-20T10:47:50;13.40;76.10
33827;DHT22;20128;45.582;5.298;2022-12-20T10:50:22;13.40;75.90
33827;DHT22;20128;45.582;5.298;2022-12-20T10:53:19;13.40;75.60
33827;DHT22;20128;45.582;5.298;2022-12-20T10:55:46;13.40;75.50
33827;DHT22;20128;45.582;5.298;2022-12-20T11:00:37;13.50;75.90
33827;DHT22;20128;45.582;5.298;2022-12-20T11:03:18;13.50;75.50
33827;DHT22;20128;45.582;5.298;2022-12-20T11:05:59;13.50;75.60
33827;DHT22;20128;45.582;5.298;2022-12-20T11:08:27;13.60;75.70
33827;DHT22;20128;45.582;5.298;2022-12-20T11:13:43;13.60;75.80
33827;DHT22;20128;45.582;5.298;2022-12-20T11:16:34;13.60;75.60
33827;DHT22;20128;45.582;5.298;2022-12-20T11:21:46;13.50;75.90
33827;DHT22;20128;45.582;5.298;2022-12-20T11:24:34;13.60;76.00
33827;DHT22;20128;45.582;5.298;2022-12-20T11:27:31;13.50;76.00
33827;DHT22;20128;45.582;5.298;2022-12-20T11:38:23;13.50;76.70
33827;DHT22;20128;45.582;5.298;2022-12-20T11:46:56;13.60;76.40
33827;DHT22;20128;45.582;5.298;2022-12-20T11:52:50;13.50;76.60
33827;DHT22;20128;45.582;5.298;2022-12-20T11:55:18;13.60;76.60
33827;DHT22;20128;45.582;5.298;2022-12-20T11:58:55;13.60;76.60
33827;DHT22;20128;45.582;5.298;2022-12-20T12:01:00;13.60;76.60
33827;DHT22;20128;45.582;5.298;2022-12-20T12:03:43;13.60;76.70
33827;DHT22;20128;45.582;5.298;2022-12-20T12:06:30;13.60;76.80
33827;DHT22;20128;45.582;5.298;2022-12-20T12:11:40;13.60;77.20
33827;DHT22;20128;45.582;5.298;2022-12-20T12:14:26;13.60;77.00
33827;DHT22;20128;45.582;5.298;2022-12-20T12:16:53;13.60;76.90
33827;DHT22;20128;45.582;5.298;2022-12-20T12:19:23;13.60;77.30
33827;DHT22;20128;45.582;5.298;2022-12-20T12:22:00;13.60;77.40
33827;DHT22;20128;45.582;5.298;2022-12-20T12:24:34;13.60;77.70
33827;DHT22;20128;45.582;5.298;2022-12-20T12:27:03;13.50;77.20
33827;DHT22;20128;45.582;5.298;2022-12-20T12:29:31;13.50;77.30
33827;DHT22;20128;45.582;5.298;2022-12-20T12:32:20;13.60;77.50
33827;DHT22;20128;45.582;5.298;2022-12-20T12:40:30;13.60;76.70
33827;DHT22;20128;45.582;5.298;2022-12-20T12:48:14;13.70;77.10
33827;DHT22;20128;45.582;5.298;2022-12-20T12:50:46;13.60;77.00
33827;DHT22;20128;45.582;5.298;2022-12-20T12:55:51;13.70;76.70
33827;DHT22;20128;45.582;5.298;2022-12-20T13:11:53;13.80;77.00
33827;DHT22;20128;45.582;5.298;2022-12-20T13:16:47;13.70;77.30
33827;DHT22;20128;45.582;5.298;2022-12-20T13:19:18;13.70;77.00
33827;DHT22;20128;45.582;5.298;2022-12-20T13:21:57;13.70;77.30
33827;DHT22;20128;45.582;5.298;2022-12-20T13:37:51;13.80;76.80
33827;DHT22;20128;45.582;5.298;2022-12-20T13:40:31;13.80;76.70
33827;DHT22;20128;45.582;5.298;2022-12-20T13:42:59;13.80;76.50
33827;DHT22;20128;45.582;5.298;2022-12-20T13:45:29;13.90;76.60
33827;DHT22;20128;45.582;5.298;2022-12-20T13:47:58;13.80;76.60
33827;DHT22;20128;45.582;5.298;2022-12-20T13:50:39;13.80;76.80
33827;DHT22;20128;45.582;5.298;2022-12-20T13:53:13;13.80;76.40
33827;DHT22;20128;45.582;5.298;2022-12-20T13:55:40;13.80;76.60
33827;DHT22;20128;45.582;5.298;2022-12-20T13:58:19;13.80;76.70
33827;DHT22;20128;45.582;5.298;2022-12-20T14:00:47;13.80;76.90
33827;DHT22;20128;45.582;5.298;2022-12-20T14:03:19;13.80;77.20
33827;DHT22;20128;45.582;5.298;2022-12-20T14:05:45;13.80;77.10
33827;DHT22;20128;45.582;5.298;2022-12-20T14:08:18;13.80;76.70
33827;DHT22;20128;45.582;5.298;2022-12-20T14:10:45;13.90;76.90
33827;DHT22;20128;45.582;5.298;2022-12-20T14:13:24;13.90;76.60
33827;DHT22;20128;45.582;5.298;2022-12-20T14:15:51;13.90;76.70
33827;DHT22;20128;45.582;5.298;2022-12-20T14:18:23;13.80;77.00
33827;DHT22;20128;45.582;5.298;2022-12-20T14:20:56;13.80;77.30
33827;DHT22;20128;45.582;5.298;2022-12-20T14:23:25;13.80;77.40
33827;DHT22;20128;45.582;5.298;2022-12-20T14:25:55;13.80;77.10
33827;DHT22;20128;45.582;5.298;2022-12-20T14:28:37;13.80;76.50
33827;DHT22;20128;45.582;5.298;2022-12-20T14:31:05;13.80;76.20
33827;DHT22;20128;45.582;5.298;2022-12-20T14:33:35;13.80;76.40
33827;DHT22;20128;45.582;5.298;2022-12-20T14:38:48;13.80;76.10
33827;DHT22;20128;45.582;5.298;2022-12-20T14:41:37;13.90;76.60
33827;DHT22;20128;45.582;5.298;2022-12-20T14:46:35;13.80;76.40
33827;DHT22;20128;45.582;5.298;2022-12-20T14:51:46;13.90;76.10
33827;DHT22;20128;45.582;5.298;2022-12-20T14:54:21;13.80;75.70
33827;DHT22;20128;45.582;5.298;2022-12-20T14:56:48;13.80;75.20
33827;DHT22;20128;45.582;5.298;2022-12-20T14:59:26;13.80;75.50
33827;DHT22;20128;45.582;5.298;2022-12-20T15:01:53;13.80;75.90
33827;DHT22;20128;45.582;5.298;2022-12-20T15:04:29;13.70;76.10
33827;DHT22;20128;45.582;5.298;2022-12-20T15:06:55;13.70;76.60
33827;DHT22;20128;45.582;5.298;2022-12-20T15:09:21;13.70;76.80
33827;DHT22;20128;45.582;5.298;2022-12-20T15:11:48;13.70;76.70
33827;DHT22;20128;45.582;5.298;2022-12-20T15:16:50;13.70;77.00
33827;DHT22;20128;45.582;5.298;2022-12-20T15:19:16;13.60;77.20
33827;DHT22;20128;45.582;5.298;2022-12-20T15:21:43;13.60;77.20
33827;DHT22;20128;45.582;5.298;2022-12-20T15:24:12;13.60;77.00
33827;DHT22;20128;45.582;5.298;2022-12-20T15:26:38;13.60;76.60
33827;DHT22;20128;45.582;5.298;2022-12-20T15:29:04;13.70;75.50
33827;DHT22;20128;45.582;5.298;2022-12-20T15:31:32;13.70;75.40
33827;DHT22;20128;45.582;5.298;2022-12-20T15:33:58;13.70;75.60
33827;DHT22;20128;45.582;5.298;2022-12-20T15:36:27;13.70;75.50
33827;DHT22;20128;45.582;5.298;2022-12-20T15:38:54;13.70;75.80
33827;DHT22;20128;45.582;5.298;2022-12-20T15:41:26;13.70;76.30
33827;DHT22;20128;45.582;5.298;2022-12-20T15:43:55;13.60;76.60
33827;DHT22;20128;45.582;5.298;2022-12-20T15:46:21;13.60;76.90
33827;DHT22;20128;45.582;5.298;2022-12-20T15:48:47;13.60;77.10
33827;DHT22;20128;45.582;5.298;2022-12-20T15:51:34;13.50;77.30
33827;DHT22;20128;45.582;5.298;2022-12-20T15:54:02;13.50;77.50
33827;DHT22;20128;45.582;5.298;2022-12-20T15:56:28;13.50;77.40
33827;DHT22;20128;45.582;5.298;2022-12-20T15:58:54;13.40;77.30
33827;DHT22;20128;45.582;5.298;2022-12-20T16:01:34;13.50;77.50
33827;DHT22;20128;45.582;5.298;2022-12-20T16:04:01;13.40;77.50
33827;DHT22;20128;45.582;5.298;2022-12-20T16:06:26;13.40;77.60
33827;DHT22;20128;45.582;5.298;2022-12-20T16:08:52;13.40;77.70
33827;DHT22;20128;45.582;5.298;2022-12-20T16:11:22;13.40;77.90
33827;DHT22;20128;45.582;5.298;2022-12-20T16:13:49;13.40;78.00
33827;DHT22;20128;45.582;5.298;2022-12-20T16:16:20;13.40;78.00
33827;DHT22;20128;45.582;5.298;2022-12-20T16:18:45;13.50;77.90
33827;DHT22;20128;45.582;5.298;2022-12-20T16:21:22;13.50;77.70
33827;DHT22;20128;45.582;5.298;2022-12-20T16:23:49;13.50;77.80
33827;DHT22;20128;45.582;5.298;2022-12-20T16:26:21;13.50;77.80
33827;DHT22;20128;45.582;5.298;2022-12-20T16:28:50;13.60;78.00
33827;DHT22;20128;45.582;5.298;2022-12-20T16:31:23;13.50;77.90
33827;DHT22;20128;45.582;5.298;2022-12-20T16:33:50;13.60;77.90
33827;DHT22;20128;45.582;5.298;2022-12-20T16:36:16;13.60;77.80
33827;DHT22;20128;45.582;5.298;2022-12-20T16:38:41;13.60;77.80
33827;DHT22;20128;45.582;5.298;2022-12-20T16:41:16;13.60;77.70
33827;DHT22;20128;45.582;5.298;2022-12-20T16:43:43;13.60;77.70
33827;DHT22;20128;45.582;5.298;2022-12-20T16:46:14;13.60;77.80
33827;DHT22;20128;45.582;5.298;2022-12-20T16:48:41;13.60;78.00
33827;DHT22;20128;45.582;5.298;2022-12-20T16:51:41;13.60;78.10
33827;DHT22;20128;45.582;5.298;2022-12-20T16:56:42;13.60;77.90
33827;DHT22;20128;45.582;5.298;2022-12-20T16:59:12;13.60;77.90
33827;DHT22;20128;45.582;5.298;2022-12-20T17:01:41;13.60;77.80
33827;DHT22;20128;45.582;5.298;2022-12-20T17:04:13;13.60;78.00
33827;DHT22;20128;45.582;5.298;2022-12-20T17:06:40;13.60;77.70
33827;DHT22;20128;45.582;5.298;2022-12-20T17:09:06;13.60;77.70
33827;DHT22;20128;45.582;5.298;2022-12-20T17:11:32;13.70;77.60
33827;DHT22;20128;45.582;5.298;2022-12-20T17:13:59;13.70;77.50
33827;DHT22;20128;45.582;5.298;2022-12-20T17:16:25;13.70;77.50
33827;DHT22;20128;45.582;5.298;2022-12-20T17:18:53;13.70;77.60
33827;DHT22;20128;45.582;5.298;2022-12-20T17:24:05;13.80;77.50
33827;DHT22;20128;45.582;5.298;2022-12-20T17:26:32;13.70;77.20
33827;DHT22;20128;45.582;5.298;2022-12-20T17:28:58;13.80;77.40
33827;DHT22;20128;45.582;5.298;2022-12-20T17:31:28;13.80;77.50
33827;DHT22;20128;45.582;5.298;2022-12-20T17:33:56;13.80;77.30
33827;DHT22;20128;45.582;5.298;2022-12-20T17:36:22;13.80;77.30
33827;DHT22;20128;45.582;5.298;2022-12-20T17:38:48;13.80;77.30
33827;DHT22;20128;45.582;5.298;2022-12-20T17:41:23;13.80;78.00
33827;DHT22;20128;45.582;5.298;2022-12-20T17:43:51;13.80;77.20
33827;DHT22;20128;45.582;5.298;2022-12-20T17:46:17;13.80;77.30
33827;DHT22;20128;45.582;5.298;2022-12-20T17:48:45;13.80;77.30